PWSweather.com
Personal Weather Stations
Station Observations
SHAHALMS1
Eftra, Falkenberg, HA

EftraFalkenberg, HA

Lat: 56.85, Lon: 12.65

Elevation: 140

Station Type:

http://hem.passagen.se/risarp101

High Low Average
Temperature 47.1°F8.4°C 26.6°F-3.0°C 37.1°F2.8°C
Dew Point 25.4°F-3.7°C 14.0°F-10.0°C 20.2°F-6.6°C
Winds 8.4 mph 13.5 kmh Calm Calm 3.0 mph SE4.8 kmh SE
Wind Gusts 17.5 mph28.2 kmh -- 9.0 mph14.5 kmh
Humidity 75% 35% 52%
Pressure 30.42 in1030.1 mb 30.24 in1024.0 mb -
Precipitation 0.00 in0.0 mm - -
Hour Temp Dew Point Humidity Winds Wind Gusts Pressure Precip Precip Rate Daily Precip Total
12:00 AM 28.6°F-1.9°C 14.0°F-10.0°C 54% Calm Calm -- 30.33 in1027.1 mb 0.00 in0.0 mm 0.00 in0.0 mm 0.00 in0.0 mm
12:18 AM 28.6°F-1.9°C 14.0°F-10.0°C 54% Calm Calm -- 30.33 in1027.1 mb 0.00 in0.0 mm 0.00 in0.0 mm 0.00 in0.0 mm
12:31 AM 28.6°F-1.9°C 14.0°F-10.0°C 54% Calm Calm -- 30.33 in1027.1 mb 0.00 in0.0 mm 0.00 in0.0 mm 0.00 in0.0 mm
12:45 AM 28.6°F-1.9°C 14.0°F-10.0°C 54% Calm Calm -- 30.33 in1027.1 mb 0.00 in0.0 mm 0.00 in0.0 mm 0.00 in0.0 mm
01:00 AM 28.6°F-1.9°C 14.0°F-10.0°C 54% Calm Calm -- 30.33 in1027.1 mb 0.00 in0.0 mm 0.00 in0.0 mm 0.00 in0.0 mm
01:15 AM 28.6°F-1.9°C 14.0°F-10.0°C 54% Calm Calm -- 30.36 in1028.1 mb 0.00 in0.0 mm 0.00 in0.0 mm 0.00 in0.0 mm
01:30 AM 28.6°F-1.9°C 14.0°F-10.0°C 54% 0.3 mph SE0.5 kmh SE 4.3 mph6.9 kmh 30.33 in1027.1 mb 0.00 in0.0 mm 0.00 in0.0 mm 0.00 in0.0 mm
01:45 AM 28.6°F-1.9°C 14.0°F-10.0°C 54% Calm Calm -- 30.33 in1027.1 mb 0.00 in0.0 mm 0.00 in0.0 mm 0.00 in0.0 mm
02:00 AM 26.8°F-2.9°C 16.6°F-8.6°C 65% 0.3 mph E0.5 kmh E 6.1 mph9.8 kmh 30.33 in1027.1 mb 0.00 in0.0 mm 0.00 in0.0 mm 0.00 in0.0 mm
02:15 AM 26.6°F-3.0°C 17.1°F-8.3°C 67% 0.7 mph SE1.1 kmh SE 5.4 mph8.7 kmh 30.33 in1027.1 mb 0.00 in0.0 mm 0.00 in0.0 mm 0.00 in0.0 mm
02:30 AM 26.6°F-3.0°C 17.1°F-8.3°C 67% Calm Calm -- 30.33 in1027.1 mb 0.00 in0.0 mm 0.00 in0.0 mm 0.00 in0.0 mm
02:45 AM 26.6°F-3.0°C 17.1°F-8.3°C 67% Calm Calm -- 30.36 in1028.1 mb 0.00 in0.0 mm 0.00 in0.0 mm 0.00 in0.0 mm
03:00 AM 26.6°F-3.0°C 17.1°F-8.3°C 67% Calm Calm -- 30.36 in1028.1 mb 0.00 in0.0 mm 0.00 in0.0 mm 0.00 in0.0 mm
03:15 AM 26.6°F-3.0°C 17.1°F-8.3°C 67% 2.8 mph E4.5 kmh E 6.8 mph10.9 kmh 30.36 in1028.1 mb 0.00 in0.0 mm 0.00 in0.0 mm 0.00 in0.0 mm
03:30 AM 26.6°F-3.0°C 17.1°F-8.3°C 67% 2.8 mph E4.5 kmh E 6.8 mph10.9 kmh 30.36 in1028.1 mb 0.00 in0.0 mm 0.00 in0.0 mm 0.00 in0.0 mm
03:45 AM 26.6°F-3.0°C 17.1°F-8.3°C 67% 2.8 mph E4.5 kmh E 6.8 mph10.9 kmh 30.36 in1028.1 mb 0.00 in0.0 mm 0.00 in0.0 mm 0.00 in0.0 mm
04:00 AM 26.6°F-3.0°C 17.1°F-8.3°C 67% 2.8 mph E4.5 kmh E 6.8 mph10.9 kmh 30.36 in1028.1 mb 0.00 in0.0 mm 0.00 in0.0 mm 0.00 in0.0 mm
04:15 AM 26.6°F-3.0°C 17.1°F-8.3°C 67% 2.8 mph E4.5 kmh E 6.8 mph10.9 kmh 30.36 in1028.1 mb 0.00 in0.0 mm 0.00 in0.0 mm 0.00 in0.0 mm
04:30 AM 26.6°F-3.0°C 17.1°F-8.3°C 67% 2.8 mph E4.5 kmh E 6.8 mph10.9 kmh 30.36 in1028.1 mb 0.00 in0.0 mm 0.00 in0.0 mm 0.00 in0.0 mm
04:45 AM 26.6°F-3.0°C 17.1°F-8.3°C 67% 2.8 mph E4.5 kmh E 6.8 mph10.9 kmh 30.33 in1027.1 mb 0.00 in0.0 mm 0.00 in0.0 mm 0.00 in0.0 mm
05:00 AM 27.0°F-2.8°C 19.5°F-6.9°C 73% 2.8 mph E4.5 kmh E 6.8 mph10.9 kmh 30.33 in1027.1 mb 0.00 in0.0 mm 0.00 in0.0 mm 0.00 in0.0 mm
05:15 AM 27.3°F-2.6°C 20.1°F-6.6°C 74% 2.8 mph E4.5 kmh E 6.8 mph10.9 kmh 30.33 in1027.1 mb 0.00 in0.0 mm 0.00 in0.0 mm 0.00 in0.0 mm
05:30 AM 27.3°F-2.6°C 20.1°F-6.6°C 74% 2.8 mph E4.5 kmh E 6.8 mph10.9 kmh 30.36 in1028.1 mb 0.00 in0.0 mm 0.00 in0.0 mm 0.00 in0.0 mm
05:45 AM 27.1°F-2.7°C 19.9°F-6.7°C 74% 2.8 mph E4.5 kmh E 6.8 mph10.9 kmh 30.36 in1028.1 mb 0.00 in0.0 mm 0.00 in0.0 mm 0.00 in0.0 mm
06:00 AM 27.7°F-2.4°C 20.8°F-6.2°C 75% 2.8 mph E4.5 kmh E 6.8 mph10.9 kmh 30.36 in1028.1 mb 0.00 in0.0 mm 0.00 in0.0 mm 0.00 in0.0 mm
06:15 AM 28.4°F-2.0°C 21.5°F-5.8°C 75% 2.8 mph E4.5 kmh E 6.8 mph10.9 kmh 30.39 in1029.1 mb 0.00 in0.0 mm 0.00 in0.0 mm 0.00 in0.0 mm
06:30 AM 28.6°F-1.9°C 21.3°F-5.9°C 74% 2.8 mph E4.5 kmh E 6.8 mph10.9 kmh 30.39 in1029.1 mb 0.00 in0.0 mm 0.00 in0.0 mm 0.00 in0.0 mm
06:45 AM 28.4°F-2.0°C 20.8°F-6.2°C 73% 2.8 mph E4.5 kmh E 6.8 mph10.9 kmh 30.39 in1029.1 mb 0.00 in0.0 mm 0.00 in0.0 mm 0.00 in0.0 mm
07:00 AM 30.2°F-1.0°C 22.6°F-5.2°C 73% 2.8 mph E4.5 kmh E 6.8 mph10.9 kmh 30.39 in1029.1 mb 0.00 in0.0 mm 0.00 in0.0 mm 0.00 in0.0 mm
07:15 AM 32.2°F0.1°C 23.8°F-4.6°C 71% 2.8 mph E4.5 kmh E 6.8 mph10.9 kmh 30.39 in1029.1 mb 0.00 in0.0 mm 0.00 in0.0 mm 0.00 in0.0 mm
07:30 AM 33.4°F0.8°C 24.0°F-4.4°C 68% 8.4 mph E13.5 kmh E 10.4 mph16.7 kmh 30.42 in1030.1 mb 0.00 in0.0 mm 0.00 in0.0 mm 0.00 in0.0 mm
07:45 AM 35.8°F2.1°C 24.4°F-4.2°C 63% 7.3 mph E11.7 kmh E 10.0 mph16.1 kmh 30.39 in1029.1 mb 0.00 in0.0 mm 0.00 in0.0 mm 0.00 in0.0 mm
08:00 AM 37.0°F2.8°C 23.6°F-4.7°C 58% 7.4 mph E11.9 kmh E 10.4 mph16.7 kmh 30.42 in1030.1 mb 0.00 in0.0 mm 0.00 in0.0 mm 0.00 in0.0 mm
08:17 AM 37.6°F3.1°C 24.1°F-4.4°C 58% 6.4 mph E10.3 kmh E 10.0 mph16.1 kmh 30.42 in1030.1 mb 0.00 in0.0 mm 0.00 in0.0 mm 0.00 in0.0 mm
08:30 AM 38.3°F3.5°C 24.8°F-4.0°C 58% 2.1 mph E3.4 kmh E 8.9 mph14.3 kmh 30.42 in1030.1 mb 0.00 in0.0 mm 0.00 in0.0 mm 0.00 in0.0 mm
08:45 AM 40.1°F4.5°C 25.2°F-3.8°C 55% 5.6 mph E9.0 kmh E 9.7 mph15.6 kmh 30.39 in1029.1 mb 0.00 in0.0 mm 0.00 in0.0 mm 0.00 in0.0 mm
09:00 AM 41.5°F5.3°C 25.2°F-3.8°C 52% 6.2 mph E10.0 kmh E 10.4 mph16.7 kmh 30.42 in1030.1 mb 0.00 in0.0 mm 0.00 in0.0 mm 0.00 in0.0 mm
09:15 AM 42.4°F5.8°C 25.1°F-3.8°C 50% 6.1 mph E9.8 kmh E 11.5 mph18.5 kmh 30.42 in1030.1 mb 0.00 in0.0 mm 0.00 in0.0 mm 0.00 in0.0 mm
09:30 AM 43.3°F6.3°C 25.4°F-3.7°C 49% 3.4 mph E5.5 kmh E 10.0 mph16.1 kmh 30.39 in1029.1 mb 0.00 in0.0 mm 0.00 in0.0 mm 0.00 in0.0 mm
09:45 AM 43.9°F6.6°C 24.9°F-3.9°C 47% 1.4 mph S2.3 kmh S 6.4 mph10.3 kmh 30.39 in1029.1 mb 0.00 in0.0 mm 0.00 in0.0 mm 0.00 in0.0 mm
10:00 AM 44.1°F6.7°C 25.1°F-3.8°C 47% 2.1 mph SE3.4 kmh SE 11.5 mph18.5 kmh 30.39 in1029.1 mb 0.00 in0.0 mm 0.00 in0.0 mm 0.00 in0.0 mm
10:15 AM 44.6°F7.0°C 22.9°F-5.1°C 42% 4.6 mph S7.4 kmh S 14.0 mph22.5 kmh 30.42 in1030.1 mb 0.00 in0.0 mm 0.00 in0.0 mm 0.00 in0.0 mm
10:30 AM 45.0°F7.2°C 22.1°F-5.5°C 40% 4.3 mph SSE6.9 kmh SSE 10.7 mph17.2 kmh 30.39 in1029.1 mb 0.00 in0.0 mm 0.00 in0.0 mm 0.00 in0.0 mm
10:45 AM 45.3°F7.4°C 19.9°F-6.7°C 36% 6.2 mph SSE10.0 kmh SSE 15.7 mph25.3 kmh 30.39 in1029.1 mb 0.00 in0.0 mm 0.00 in0.0 mm 0.00 in0.0 mm
11:00 AM 45.7°F7.6°C 22.1°F-5.5°C 39% 4.3 mph S6.9 kmh S 11.8 mph19.0 kmh 30.42 in1030.1 mb 0.00 in0.0 mm 0.00 in0.0 mm 0.00 in0.0 mm
11:15 AM 45.7°F7.6°C 22.7°F-5.2°C 40% 6.3 mph WSW10.1 kmh WSW 14.0 mph22.5 kmh 30.42 in1030.1 mb 0.00 in0.0 mm 0.00 in0.0 mm 0.00 in0.0 mm
11:30 AM 45.7°F7.6°C 23.3°F-4.8°C 41% 7.4 mph WSW11.9 kmh WSW 15.4 mph24.8 kmh 30.42 in1030.1 mb 0.00 in0.0 mm 0.00 in0.0 mm 0.00 in0.0 mm
11:45 AM 46.0°F7.8°C 21.8°F-5.7°C 38% 7.1 mph SW11.4 kmh SW 13.6 mph21.9 kmh 30.42 in1030.1 mb 0.00 in0.0 mm 0.00 in0.0 mm 0.00 in0.0 mm
12:00 PM 46.6°F8.1°C 23.5°F-4.7°C 40% 6.6 mph W10.6 kmh W 12.9 mph20.8 kmh 30.42 in1030.1 mb 0.00 in0.0 mm 0.00 in0.0 mm 0.00 in0.0 mm
12:15 PM 46.0°F7.8°C 22.4°F-5.3°C 39% 6.8 mph W10.9 kmh W 13.6 mph21.9 kmh 30.42 in1030.1 mb 0.00 in0.0 mm 0.00 in0.0 mm 0.00 in0.0 mm
12:30 PM 46.0°F7.8°C 22.4°F-5.3°C 39% 7.3 mph WSW11.7 kmh WSW 12.9 mph20.8 kmh 30.42 in1030.1 mb 0.00 in0.0 mm 0.00 in0.0 mm 0.00 in0.0 mm
12:45 PM 45.7°F7.6°C 21.5°F-5.8°C 38% 7.7 mph W12.4 kmh W 14.0 mph22.5 kmh 30.39 in1029.1 mb 0.00 in0.0 mm 0.00 in0.0 mm 0.00 in0.0 mm
01:00 PM 45.9°F7.7°C 22.3°F-5.4°C 39% 5.8 mph W9.3 kmh W 12.2 mph19.6 kmh 30.39 in1029.1 mb 0.00 in0.0 mm 0.00 in0.0 mm 0.00 in0.0 mm
01:15 PM 46.2°F7.9°C 22.6°F-5.2°C 39% 5.0 mph W8.0 kmh W 12.5 mph20.1 kmh 30.39 in1029.1 mb 0.00 in0.0 mm 0.00 in0.0 mm 0.00 in0.0 mm
01:30 PM 46.4°F8.0°C 20.9°F-6.2°C 36% 5.2 mph S8.4 kmh S 14.0 mph22.5 kmh 30.39 in1029.1 mb 0.00 in0.0 mm 0.00 in0.0 mm 0.00 in0.0 mm
01:45 PM 46.9°F8.3°C 22.6°F-5.2°C 38% 6.4 mph WSW10.3 kmh WSW 10.4 mph16.7 kmh 30.39 in1029.1 mb 0.00 in0.0 mm 0.00 in0.0 mm 0.00 in0.0 mm
02:00 PM 47.1°F8.4°C 20.8°F-6.2°C 35% 5.8 mph SW9.3 kmh SW 12.2 mph19.6 kmh 30.36 in1028.1 mb 0.00 in0.0 mm 0.00 in0.0 mm 0.00 in0.0 mm
02:15 PM 47.1°F8.4°C 21.5°F-5.8°C 36% 6.7 mph WSW10.8 kmh WSW 12.2 mph19.6 kmh 30.36 in1028.1 mb 0.00 in0.0 mm 0.00 in0.0 mm 0.00 in0.0 mm
02:30 PM 47.1°F8.4°C 20.8°F-6.2°C 35% 5.0 mph S8.0 kmh S 13.6 mph21.9 kmh 30.36 in1028.1 mb 0.00 in0.0 mm 0.00 in0.0 mm 0.00 in0.0 mm
02:45 PM 47.1°F8.4°C 20.8°F-6.2°C 35% 6.2 mph S10.0 kmh S 15.4 mph24.8 kmh 30.33 in1027.1 mb 0.00 in0.0 mm 0.00 in0.0 mm 0.00 in0.0 mm
03:00 PM 46.9°F8.3°C 20.7°F-6.3°C 35% 7.0 mph SSW11.3 kmh SSW 17.5 mph28.2 kmh 30.39 in1029.1 mb 0.00 in0.0 mm 0.00 in0.0 mm 0.00 in0.0 mm
03:15 PM 46.4°F8.0°C 20.2°F-6.6°C 35% 6.6 mph W10.6 kmh W 13.6 mph21.9 kmh 30.36 in1028.1 mb 0.00 in0.0 mm 0.00 in0.0 mm 0.00 in0.0 mm
03:30 PM 46.4°F8.0°C 20.9°F-6.2°C 36% 5.6 mph WSW9.0 kmh WSW 11.5 mph18.5 kmh 30.33 in1027.1 mb 0.00 in0.0 mm 0.00 in0.0 mm 0.00 in0.0 mm
03:45 PM 46.4°F8.0°C 20.9°F-6.2°C 36% 6.0 mph WSW9.7 kmh WSW 14.3 mph23.0 kmh 30.30 in1026.1 mb 0.00 in0.0 mm 0.00 in0.0 mm 0.00 in0.0 mm
04:00 PM 46.0°F7.8°C 19.9°F-6.7°C 35% 5.0 mph SW8.0 kmh SW 14.0 mph22.5 kmh 30.30 in1026.1 mb 0.00 in0.0 mm 0.00 in0.0 mm 0.00 in0.0 mm
04:16 PM 46.0°F7.8°C 19.9°F-6.7°C 35% 4.5 mph S7.2 kmh S 12.2 mph19.6 kmh 30.30 in1026.1 mb 0.00 in0.0 mm 0.00 in0.0 mm 0.00 in0.0 mm
04:32 PM 45.1°F7.3°C 19.7°F-6.8°C 36% 4.7 mph SSW7.6 kmh SSW 10.4 mph16.7 kmh 30.30 in1026.1 mb 0.00 in0.0 mm 0.00 in0.0 mm 0.00 in0.0 mm
04:45 PM 44.8°F7.1°C 18.8°F-7.3°C 35% 3.8 mph SW6.1 kmh SW 10.7 mph17.2 kmh 30.30 in1026.1 mb 0.00 in0.0 mm 0.00 in0.0 mm 0.00 in0.0 mm
05:00 PM 44.8°F7.1°C 19.4°F-7.0°C 36% 4.4 mph SW7.1 kmh SW 11.5 mph18.5 kmh 30.30 in1026.1 mb 0.00 in0.0 mm 0.00 in0.0 mm 0.00 in0.0 mm
05:15 PM 44.2°F6.8°C 18.9°F-7.3°C 36% 2.6 mph S4.2 kmh S 9.3 mph15.0 kmh 30.30 in1026.1 mb 0.00 in0.0 mm 0.00 in0.0 mm 0.00 in0.0 mm
05:30 PM 43.3°F6.3°C 18.8°F-7.3°C 37% 4.5 mph S7.2 kmh S 11.8 mph19.0 kmh 30.27 in1025.1 mb 0.00 in0.0 mm 0.00 in0.0 mm 0.00 in0.0 mm
05:45 PM 42.4°F5.8°C 18.6°F-7.4°C 38% 3.2 mph S5.1 kmh S 11.8 mph19.0 kmh 30.27 in1025.1 mb 0.00 in0.0 mm 0.00 in0.0 mm 0.00 in0.0 mm
06:00 PM 41.4°F5.2°C 18.8°F-7.3°C 40% 1.3 mph S2.1 kmh S 6.4 mph10.3 kmh 30.27 in1025.1 mb 0.00 in0.0 mm 0.00 in0.0 mm 0.00 in0.0 mm
06:15 PM 40.5°F4.7°C 18.6°F-7.4°C 41% 0.5 mph S0.8 kmh S 5.7 mph9.2 kmh 30.27 in1025.1 mb 0.00 in0.0 mm 0.00 in0.0 mm 0.00 in0.0 mm
06:30 PM 39.4°F4.1°C 19.8°F-6.8°C 45% 1.6 mph SSE2.6 kmh SSE 6.8 mph10.9 kmh 30.27 in1025.1 mb 0.00 in0.0 mm 0.00 in0.0 mm 0.00 in0.0 mm
06:45 PM 37.6°F3.1°C 18.6°F-7.4°C 46% 0.3 mph SSE0.5 kmh SSE 5.0 mph8.0 kmh 30.27 in1025.1 mb 0.00 in0.0 mm 0.00 in0.0 mm 0.00 in0.0 mm
07:00 PM 34.9°F1.6°C 17.6°F-8.0°C 49% Calm Calm -- 30.27 in1025.1 mb 0.00 in0.0 mm 0.00 in0.0 mm 0.00 in0.0 mm
07:15 PM 33.3°F0.7°C 16.6°F-8.6°C 50% Calm Calm -- 30.27 in1025.1 mb 0.00 in0.0 mm 0.00 in0.0 mm 0.00 in0.0 mm
07:30 PM 33.8°F1.0°C 18.9°F-7.3°C 54% 0.1 mph E0.2 kmh E 3.6 mph5.8 kmh 30.27 in1025.1 mb 0.00 in0.0 mm 0.00 in0.0 mm 0.00 in0.0 mm
07:45 PM 32.9°F0.5°C 18.9°F-7.3°C 56% 0.5 mph ESE0.8 kmh ESE 6.8 mph10.9 kmh 30.27 in1025.1 mb 0.00 in0.0 mm 0.00 in0.0 mm 0.00 in0.0 mm
08:00 PM 32.2°F0.1°C 19.4°F-7.0°C 59% Calm Calm -- 30.27 in1025.1 mb 0.00 in0.0 mm 0.00 in0.0 mm 0.00 in0.0 mm
08:15 PM 32.5°F0.3°C 20.2°F-6.6°C 60% 0.2 mph E0.3 kmh E 3.9 mph6.3 kmh 30.27 in1025.1 mb 0.00 in0.0 mm 0.00 in0.0 mm 0.00 in0.0 mm
08:30 PM 33.1°F0.6°C 20.7°F-6.3°C 60% Calm Calm -- 30.27 in1025.1 mb 0.00 in0.0 mm 0.00 in0.0 mm 0.00 in0.0 mm
08:45 PM 33.8°F1.0°C 21.0°F-6.1°C 59% 0.9 mph E1.4 kmh E 6.1 mph9.8 kmh 30.27 in1025.1 mb 0.00 in0.0 mm 0.00 in0.0 mm 0.00 in0.0 mm
09:00 PM 34.0°F1.1°C 20.7°F-6.3°C 58% 1.1 mph SE1.8 kmh SE 5.4 mph8.7 kmh 30.27 in1025.1 mb 0.00 in0.0 mm 0.00 in0.0 mm 0.00 in0.0 mm
09:15 PM 34.3°F1.3°C 20.3°F-6.5°C 56% 2.3 mph E3.7 kmh E 7.5 mph12.1 kmh 30.27 in1025.1 mb 0.00 in0.0 mm 0.00 in0.0 mm 0.00 in0.0 mm
09:30 PM 34.5°F1.4°C 19.6°F-6.9°C 54% 3.5 mph E5.6 kmh E 8.6 mph13.8 kmh 30.27 in1025.1 mb 0.00 in0.0 mm 0.00 in0.0 mm 0.00 in0.0 mm
09:45 PM 34.3°F1.3°C 19.4°F-7.0°C 54% 2.8 mph E4.5 kmh E 7.5 mph12.1 kmh 30.27 in1025.1 mb 0.00 in0.0 mm 0.00 in0.0 mm 0.00 in0.0 mm
10:00 PM 34.3°F1.3°C 19.4°F-7.0°C 54% 1.7 mph SE2.7 kmh SE 9.3 mph15.0 kmh 30.27 in1025.1 mb 0.00 in0.0 mm 0.00 in0.0 mm 0.00 in0.0 mm
10:15 PM 34.3°F1.3°C 19.4°F-7.0°C 54% 2.5 mph SE4.0 kmh SE 8.6 mph13.8 kmh 30.27 in1025.1 mb 0.00 in0.0 mm 0.00 in0.0 mm 0.00 in0.0 mm
10:30 PM 34.3°F1.3°C 19.4°F-7.0°C 54% 2.2 mph E3.5 kmh E 9.3 mph15.0 kmh 30.27 in1025.1 mb 0.00 in0.0 mm 0.00 in0.0 mm 0.00 in0.0 mm
10:45 PM 34.3°F1.3°C 19.4°F-7.0°C 54% 2.0 mph ESE3.2 kmh ESE 10.0 mph16.1 kmh 30.24 in1024.0 mb 0.00 in0.0 mm 0.00 in0.0 mm 0.00 in0.0 mm
11:00 PM 34.3°F1.3°C 19.4°F-7.0°C 54% 3.9 mph ESE6.3 kmh ESE 10.0 mph16.1 kmh 30.24 in1024.0 mb 0.00 in0.0 mm 0.00 in0.0 mm 0.00 in0.0 mm
11:15 PM 34.3°F1.3°C 19.4°F-7.0°C 54% 3.7 mph SE6.0 kmh SE 14.0 mph22.5 kmh 30.24 in1024.0 mb 0.00 in0.0 mm 0.00 in0.0 mm 0.00 in0.0 mm
11:30 PM 34.3°F1.3°C 19.4°F-7.0°C 54% 4.7 mph ESE7.6 kmh ESE 12.9 mph20.8 kmh 30.24 in1024.0 mb 0.00 in0.0 mm 0.00 in0.0 mm 0.00 in0.0 mm
11:45 PM 34.3°F1.3°C 19.4°F-7.0°C 54% 4.0 mph ESE6.4 kmh ESE 14.0 mph22.5 kmh 30.24 in1024.0 mb 0.00 in0.0 mm 0.00 in0.0 mm 0.00 in0.0 mm